Time;durP1;ratioP1;P1;durP2;ratioP2;P2;SDS_P1;SDS_P2;PMS_P1;PMS_P2;Temp;Humidity;BMP_temperature;BMP_pressure;BME280_temperature;BME280_humidity;BME280_pressure;Samples;Min_cycle;Max_cycle;Signal;HPM_P1;HPM_P2
2022/12/18 00:01:37;;;;;;;39.20;20.30;;;;;;;-4.22;84.63;102663.88;5098919;28;20027;-70
2022/12/18 00:04:07;;;;;;;43.47;21.27;;;;;;;-4.25;85.21;102663.78;5093508;28;20047;-70
2022/12/18 00:06:34;;;;;;;;;;;;;;;-4.14;86.00;102660.47;5083490;28;20126;-71
2022/12/18 00:09:01;;;;;;;40.15;18.15;;;;;;;-4.21;85.20;102660.38;5095246;28;19916;-70
2022/12/18 00:11:28;;;;;;;41.13;20.45;;;;;;;-4.21;84.71;102663.00;5081882;28;20109;-70
2022/12/18 00:13:55;;;;;;;40.38;20.60;;;;;;;-4.23;84.14;102667.34;5084885;28;20066;-70
2022/12/18 00:16:22;;;;;;;40.65;19.83;;;;;;;-4.28;84.20;102669.00;5099924;28;20020;-70
2022/12/18 00:18:53;;;;;;;43.55;19.23;;;;;;;-4.35;84.45;102661.88;5081108;28;20299;-69
2022/12/18 00:21:20;;;;;;;40.83;20.50;;;;;;;-4.45;83.78;102658.22;5100351;28;20059;-71
2022/12/18 00:23:47;;;;;;;43.90;20.95;;;;;;;-4.50;84.48;102646.72;5100228;28;20028;-70
2022/12/18 00:26:15;;;;;;;37.58;19.58;;;;;;;-4.49;84.87;102638.00;5099485;28;20476;-70
2022/12/18 00:28:41;;;;;;;41.53;21.05;;;;;;;-4.51;84.51;102631.88;5098867;28;20028;-70
2022/12/18 00:31:09;;;;;;;43.10;21.20;;;;;;;-4.51;84.40;102621.38;5097629;28;20027;-70
2022/12/18 00:33:35;;;;;;;39.90;20.70;;;;;;;-4.53;84.35;102624.81;5090568;28;20584;-70
2022/12/18 00:36:06;;;;;;;44.53;19.65;;;;;;;-4.52;85.41;102616.06;5099907;28;20149;-70
2022/12/18 00:38:33;;;;;;;40.88;19.77;;;;;;;-4.52;86.36;102623.94;5100922;28;20348;-70
2022/12/18 00:40:59;;;;;;;41.55;20.90;;;;;;;-4.47;86.84;102619.66;5080876;28;20042;-70
2022/12/18 00:43:25;;;;;;;39.72;20.73;;;;;;;-4.48;87.05;102613.53;5100468;28;20020;-70
2022/12/18 00:45:50;;;;;;;39.88;18.80;;;;;;;-4.42;86.78;102618.03;5081863;28;20024;-70
2022/12/18 00:48:15;;;;;;;42.65;21.85;;;;;;;-4.41;87.01;102619.78;5089488;28;20559;-70
2022/12/18 00:50:41;;;;;;;40.35;19.73;;;;;;;-4.37;87.21;102621.59;5099904;28;20069;-70
2022/12/18 00:53:06;;;;;;;41.85;21.63;;;;;;;-4.37;87.52;102616.34;5099278;28;20102;-70
2022/12/18 00:55:31;;;;;;;40.15;20.52;;;;;;;-4.33;86.89;102606.75;5093026;28;20024;-70
2022/12/18 00:57:57;;;;;;;41.53;21.57;;;;;;;-4.34;86.39;102611.16;5065146;28;20140;-71
2022/12/18 01:00:22;;;;;;;43.00;21.05;;;;;;;-4.33;86.31;102620.78;5099125;28;20032;-71
2022/12/18 01:02:47;;;;;;;44.05;20.60;;;;;;;-4.32;86.05;102619.94;5073145;28;20088;-71
2022/12/18 01:05:14;;;;;;;35.95;18.88;;;;;;;-4.33;85.98;102622.50;5097089;28;20024;-70
2022/12/18 01:07:39;;;;;;;39.85;19.42;;;;;;;-4.34;86.17;102616.41;5100113;28;20050;-70
2022/12/18 01:10:06;;;;;;;42.03;20.73;;;;;;;-4.34;86.10;102619.03;5081364;28;20040;-70
2022/12/18 01:12:32;;;;;;;38.35;19.77;;;;;;;-4.34;86.43;102628.66;5094165;28;20287;-70
2022/12/18 01:14:58;;;;;;;39.53;18.75;;;;;;;-4.31;86.24;102631.31;5094024;28;20043;-71
2022/12/18 01:17:23;;;;;;;39.47;20.42;;;;;;;-4.29;86.06;102637.47;5098831;28;20065;-70
2022/12/18 01:19:49;;;;;;;39.60;20.45;;;;;;;-4.27;86.22;102636.66;5090088;28;20064;-70
2022/12/18 01:22:14;;;;;;;38.03;18.25;;;;;;;-4.26;85.97;102641.03;5093640;28;20031;-70
2022/12/18 01:24:40;;;;;;;35.85;18.23;;;;;;;-4.25;85.80;102637.53;5100102;28;20491;-71
2022/12/18 01:27:05;;;;;;;42.03;18.77;;;;;;;-4.27;85.57;102644.50;5097171;28;20035;-70
2022/12/18 01:29:30;;;;;;;38.40;19.20;;;;;;;-4.28;85.41;102640.13;5080970;28;20035;-70
2022/12/18 01:31:56;;;;;;;39.87;20.20;;;;;;;-4.30;85.28;102633.97;5098846;28;20030;-70
2022/12/18 01:34:23;;;;;;;39.15;20.00;;;;;;;-4.30;85.67;102633.97;5096593;28;20026;-71
2022/12/18 01:36:48;;;;;;;37.75;19.27;;;;;;;-4.30;85.56;102633.09;5087913;28;20020;-70
2022/12/18 01:39:14;;;;;;;42.13;20.13;;;;;;;-4.36;85.39;102626.00;5089932;28;20055;-70
2022/12/18 01:45:01;;;;;;;41.70;19.67;;;;;;;-4.41;85.85;102625.00;5099430;28;20093;-70
2022/12/18 01:47:49;;;;;;;36.80;18.08;;;;;;;-4.40;86.25;102634.66;5099145;28;20111;-70
2022/12/18 01:50:14;;;;;;;36.83;16.98;;;;;;;-4.44;86.01;102635.47;5097159;28;20032;-70
2022/12/18 01:52:42;;;;;;;33.53;16.58;;;;;;;-4.46;86.22;102630.19;5096157;28;20115;-71
2022/12/18 01:55:09;;;;;;;41.45;18.33;;;;;;;-4.43;86.01;102637.25;5099184;28;20016;-70
2022/12/18 01:57:35;;;;;;;43.97;19.35;;;;;;;-4.44;86.20;102630.22;5100394;28;20032;-70
2022/12/18 02:00:06;;;;;;;38.33;19.17;;;;;;;-4.41;86.01;102632.88;5087584;28;20547;-70
2022/12/18 02:02:32;;;;;;;36.80;17.65;;;;;;;-4.39;85.83;102618.06;5092633;28;20123;-73
2022/12/18 02:04:57;;;;;;;34.05;16.58;;;;;;;-4.39;85.92;102618.94;5092125;28;20499;-73
2022/12/18 02:07:45;;;;;;;36.70;17.17;;;;;;;-4.36;86.03;102617.22;5084828;28;20028;-73
2022/12/18 02:10:19;;;;;;;36.35;17.80;;;;;;;-4.37;86.08;102608.47;5071424;28;20084;-73
2022/12/18 02:13:20;;;;;;;36.38;17.08;;;;;;;-4.30;86.11;102618.22;5087275;28;20020;-74
2022/12/18 02:16:01;;;;;;;38.03;16.67;;;;;;;-4.33;85.77;102618.16;5049283;28;20043;-74
2022/12/18 02:18:34;;;;;;;38.72;17.35;;;;;;;-4.33;85.67;102612.91;5092295;28;20024;-74
2022/12/18 02:21:17;;;;;;;36.90;20.23;;;;;;;-4.34;85.37;102620.78;5089852;28;20024;-74
2022/12/18 02:24:07;;;;;;;35.70;17.60;;;;;;;-4.33;85.52;102619.88;5091337;28;20020;-73
2022/12/18 02:26:43;;;;;;;32.40;17.35;;;;;;;-4.38;84.99;102611.94;5092154;28;20060;-73
2022/12/18 02:29:17;;;;;;;37.67;16.47;;;;;;;-4.41;85.42;102614.53;5074029;28;20551;-73
2022/12/18 02:31:50;;;;;;;34.43;16.63;;;;;;;-4.41;85.06;102619.78;5089721;28;20538;-74
2022/12/18 02:34:18;;;;;;;38.75;17.38;;;;;;;-4.43;84.92;102613.63;5090887;28;20038;-74
2022/12/18 02:36:45;;;;;;;36.00;16.73;;;;;;;-4.45;84.79;102608.34;5085648;28;20111;-73
2022/12/18 02:39:13;;;;;;;37.22;16.60;;;;;;;-4.45;84.96;102610.06;5089809;28;20122;-74
2022/12/18 02:41:38;;;;;;;34.03;17.45;;;;;;;-4.45;84.96;102612.69;5088159;28;20546;-74
2022/12/18 02:44:12;;;;;;;35.88;17.25;;;;;;;-4.44;84.83;102602.22;5091798;28;20061;-74
2022/12/18 02:46:42;;;;;;;35.58;17.48;;;;;;;-4.45;84.35;102599.56;5091039;28;20122;-74
2022/12/18 02:49:40;;;;;;;34.55;17.27;;;;;;;-4.45;84.83;102596.94;5094062;28;20108;-74
2022/12/18 02:52:29;;;;;;;32.75;17.35;;;;;;;-4.49;84.87;102592.53;5091760;28;20538;-73
2022/12/18 02:55:32;;;;;;;36.25;17.35;;;;;;;-4.48;85.12;102587.31;5094683;28;20024;-73
2022/12/18 02:58:05;;;;;;;37.80;16.85;;;;;;;-4.51;84.72;102586.34;5083406;28;20063;-74
2022/12/18 03:00:41;;;;;;;30.13;15.32;;;;;;;-4.51;84.79;102586.34;5094127;28;20031;-73
2022/12/18 03:03:09;;;;;;;40.15;16.80;;;;;;;-4.53;84.22;102588.06;5094881;28;20060;-74
2022/12/18 03:05:47;;;;;;;33.97;15.98;;;;;;;-4.52;84.55;102593.34;5077140;28;20035;-74
2022/12/18 03:08:18;;;;;;;34.90;16.48;;;;;;;-4.53;84.31;102580.22;5089465;28;20024;-74
2022/12/18 03:11:08;;;;;;;33.47;15.98;;;;;;;-4.53;84.23;102580.22;5095468;28;20048;-73
2022/12/18 03:13:37;;;;;;;;;;;;;;;-4.48;85.33;102571.56;5087033;28;20067;-73
2022/12/18 03:16:04;;;;;;;37.03;15.48;;;;;;;-4.57;84.02;102572.28;5093766;28;19918;-73
2022/12/18 03:18:35;;;;;;;31.75;15.30;;;;;;;-4.57;84.39;102567.03;5094799;28;20470;-73
2022/12/18 03:21:05;;;;;;;34.65;15.15;;;;;;;-4.59;84.06;102568.72;5076753;28;20379;-74
2022/12/18 03:23:36;;;;;;;28.20;13.40;;;;;;;-4.61;84.05;102566.97;5095081;28;20032;-74
2022/12/18 03:26:12;;;;;;;31.52;15.23;;;;;;;-4.64;84.37;102565.16;5093134;28;20028;-74
2022/12/18 03:28:42;;;;;;;35.25;15.38;;;;;;;-4.67;84.15;102569.47;5084487;28;20529;-74
2022/12/18 03:31:11;;;;;;;35.70;14.02;;;;;;;-4.73;84.25;102572.84;5065541;28;20036;-74
2022/12/18 03:34:01;;;;;;;32.65;15.93;;;;;;;-4.73;84.34;102570.22;5094515;28;20089;-74
2022/12/18 03:36:30;;;;;;;31.95;14.23;;;;;;;-4.73;84.00;102585.97;5093669;28;20517;-74
2022/12/18 03:38:57;;;;;;;32.67;14.57;;;;;;;-4.80;83.81;102573.59;5086026;28;20024;-74
2022/12/18 03:41:37;;;;;;;31.05;15.32;;;;;;;-4.80;84.27;102576.22;5085497;28;20075;-74
2022/12/18 03:44:19;;;;;;;31.80;14.60;;;;;;;-4.76;84.27;102575.41;5073093;28;20069;-74
2022/12/18 03:46:44;;;;;;;31.83;14.82;;;;;;;-4.80;84.18;102570.97;5086699;28;20032;-73
2022/12/18 03:49:42;;;;;;;31.90;14.63;;;;;;;-4.75;84.35;102569.31;5092383;28;20368;-74
2022/12/18 03:52:35;;;;;;;32.50;14.70;;;;;;;-4.74;84.20;102558.00;5088748;28;20040;-74
2022/12/18 03:55:03;;;;;;;31.67;14.27;;;;;;;-4.79;83.87;102555.28;5053061;28;20529;-74
2022/12/18 03:57:31;;;;;;;33.60;14.80;;;;;;;-4.79;83.99;102552.66;5092013;28;20489;-74
2022/12/18 04:00:01;;;;;;;30.13;12.73;;;;;;;-4.78;83.33;102545.66;5092969;28;20032;-73
2022/12/18 04:02:28;;;;;;;31.70;13.85;;;;;;;-4.82;83.51;102538.59;5084763;28;20036;-74
2022/12/18 04:04:58;;;;;;;33.83;14.80;;;;;;;-4.85;83.67;102533.31;5090721;28;20028;-74
2022/12/18 04:07:24;;;;;;;30.48;14.07;;;;;;;-4.90;83.80;102527.97;5068422;28;20071;-74
2022/12/18 04:09:52;;;;;;;33.78;16.17;;;;;;;-4.96;83.87;102525.25;5076119;28;20080;-74
2022/12/18 04:12:18;;;;;;;34.55;13.70;;;;;;;-4.93;84.16;102525.31;5092522;28;20107;-74
2022/12/18 04:14:43;;;;;;;34.97;15.68;;;;;;;-4.94;84.16;102528.78;5090696;28;20106;-73
2022/12/18 04:17:08;;;;;;;33.22;15.52;;;;;;;-4.91;84.31;102518.34;5092528;28;20076;-74
2022/12/18 04:19:33;;;;;;;31.65;13.60;;;;;;;-4.90;83.98;102520.13;5093140;28;20024;-74
2022/12/18 04:21:59;;;;;;;29.52;13.68;;;;;;;-4.89;83.83;102510.50;5092578;28;20063;-74
2022/12/18 04:24:24;;;;;;;34.67;14.88;;;;;;;-4.91;83.91;102511.34;5093515;28;20069;-74
2022/12/18 04:26:49;;;;;;;34.33;14.65;;;;;;;-4.88;83.54;102509.66;5074652;28;20047;-74
2022/12/18 04:29:15;;;;;;;31.48;13.35;;;;;;;-4.86;84.24;102521.03;5092798;28;20403;-74
2022/12/18 04:31:40;;;;;;;34.13;16.67;;;;;;;-4.82;83.86;102528.97;5091575;28;20031;-74
2022/12/18 04:34:05;;;;;;;31.48;14.77;;;;;;;-4.79;83.71;102528.16;5074354;28;20027;-73
2022/12/18 04:36:30;;;;;;;35.67;17.67;;;;;;;-4.81;83.66;102535.13;5089943;28;20031;-74
2022/12/18 04:38:56;;;;;;;34.38;14.73;;;;;;;-4.81;83.19;102528.13;5089676;28;20028;-74
2022/12/18 04:41:21;;;;;;;34.00;14.32;;;;;;;-4.81;83.36;102537.75;5092962;28;20413;-74
2022/12/18 04:43:46;;;;;;;30.42;13.85;;;;;;;-4.83;83.25;102545.59;5091573;28;20047;-74
2022/12/18 04:46:12;;;;;;;29.95;13.77;;;;;;;-4.83;83.16;102536.81;5091883;28;20047;-74
2022/12/18 04:48:37;;;;;;;28.38;13.90;;;;;;;-4.84;83.42;102553.44;5093162;28;20059;-74
2022/12/18 04:51:04;;;;;;;29.17;13.82;;;;;;;-4.82;83.31;102551.72;5090313;28;20085;-74
2022/12/18 04:53:30;;;;;;;29.23;12.50;;;;;;;-4.84;82.98;102556.94;5066353;28;20025;-74
2022/12/18 04:56:04;;;;;;;30.33;12.90;;;;;;;-4.83;83.13;102563.03;5092545;28;20386;-74
2022/12/18 04:58:30;;;;;;;32.13;13.55;;;;;;;-4.83;82.71;102560.44;5073607;28;20036;-73
2022/12/18 05:00:55;;;;;;;28.33;12.63;;;;;;;-4.83;83.01;102558.72;5072327;28;20034;-74
2022/12/18 05:03:20;;;;;;;31.40;14.60;;;;;;;-4.83;82.63;102552.56;5088394;28;20119;-74
2022/12/18 05:05:49;;;;;;;30.92;13.27;;;;;;;-4.85;82.52;102552.53;5089451;28;20032;-73
2022/12/18 05:08:14;;;;;;;29.30;13.10;;;;;;;-4.82;83.00;102554.34;5089426;28;20391;-74
2022/12/18 05:10:40;;;;;;;33.50;13.93;;;;;;;-4.86;82.78;102552.50;5091518;28;20052;-74
2022/12/18 05:13:05;;;;;;;27.60;12.02;;;;;;;-4.87;82.63;102561.25;5093107;28;20364;-74
2022/12/18 05:15:32;;;;;;;30.08;12.85;;;;;;;-4.88;82.57;102562.97;5085486;28;20115;-74
2022/12/18 05:17:58;;;;;;;30.77;13.80;;;;;;;-4.91;82.33;102558.53;5092389;28;20036;-74
2022/12/18 05:20:24;;;;;;;28.55;12.60;;;;;;;-4.91;82.84;102555.91;5092052;28;20115;-74
2022/12/18 05:22:50;;;;;;;27.23;11.85;;;;;;;-4.91;82.51;102555.91;5089319;28;20030;-74
2022/12/18 05:25:16;;;;;;;30.02;13.00;;;;;;;-4.88;82.62;102551.59;5072919;28;20028;-73
2022/12/18 05:27:41;;;;;;;26.25;10.93;;;;;;;-4.88;82.80;102559.47;5090798;28;20039;-74
2022/12/18 05:30:08;;;;;;;31.77;13.85;;;;;;;-4.88;82.65;102557.72;5092636;28;20553;-73
2022/12/18 05:32:33;;;;;;;26.55;12.10;;;;;;;-4.90;82.69;102556.81;5072093;28;20024;-74
2022/12/18 05:34:58;;;;;;;28.67;12.57;;;;;;;-4.90;82.64;102556.81;5092365;28;20494;-74
2022/12/18 05:37:24;;;;;;;29.70;12.38;;;;;;;-4.89;82.68;102557.69;5086326;28;20162;-74
2022/12/18 05:39:49;;;;;;;31.17;11.60;;;;;;;-4.92;82.40;102543.69;5054638;28;20025;-74
2022/12/18 05:42:14;;;;;;;29.60;13.05;;;;;;;-4.93;82.27;102541.91;5087054;28;20411;-74
2022/12/18 05:44:40;;;;;;;29.08;12.02;;;;;;;-4.92;82.25;102537.53;5092141;28;20028;-74
2022/12/18 05:47:05;;;;;;;27.95;13.20;;;;;;;-4.96;82.09;102534.00;5089297;28;20487;-73
2022/12/18 05:49:31;;;;;;;28.77;12.98;;;;;;;-4.97;82.29;102529.59;5091007;28;20043;-74
2022/12/18 05:51:56;;;;;;;28.88;12.00;;;;;;;-4.97;82.40;102534.84;5089274;28;20028;-74
2022/12/18 05:54:21;;;;;;;27.55;12.68;;;;;;;-4.96;82.28;102539.22;5072868;28;20065;-74
2022/12/18 05:56:47;;;;;;;29.27;11.98;;;;;;;-4.98;82.74;102538.34;5073351;28;20107;-74
2022/12/18 05:59:12;;;;;;;27.27;11.82;;;;;;;-5.02;82.27;102540.84;5089630;28;20024;-74
2022/12/18 06:01:37;;;;;;;29.05;12.45;;;;;;;-5.08;82.40;102536.41;5072428;28;20035;-74
2022/12/18 06:04:02;;;;;;;30.10;12.13;;;;;;;-5.06;82.56;102532.06;5089028;28;20020;-74
2022/12/18 06:06:28;;;;;;;27.40;12.63;;;;;;;-5.06;82.27;102524.19;5072300;28;20028;-74
2022/12/18 06:08:54;;;;;;;27.40;10.52;;;;;;;-5.07;82.38;102526.78;5087774;28;20513;-74
2022/12/18 06:11:25;;;;;;;29.33;11.38;;;;;;;-5.06;82.14;102529.44;5091858;28;20028;-74
2022/12/18 06:13:52;;;;;;;26.80;11.80;;;;;;;-5.08;82.32;102525.91;5090495;28;20117;-74
2022/12/18 06:16:17;;;;;;;28.52;12.23;;;;;;;-5.07;82.36;102538.16;5090126;28;20395;-74
2022/12/18 06:18:43;;;;;;;29.67;12.13;;;;;;;-5.07;82.30;102540.75;5071950;28;20035;-74
2022/12/18 06:21:08;;;;;;;28.73;12.57;;;;;;;-5.07;82.39;102535.53;5073125;28;20032;-74
2022/12/18 06:23:33;;;;;;;28.35;13.00;;;;;;;-5.06;82.49;102539.06;5091711;28;20028;-74
2022/12/18 06:26:09;;;;;;;27.75;11.38;;;;;;;-5.05;82.50;102546.94;5086921;28;20039;-74
2022/12/18 06:28:34;;;;;;;29.52;12.77;;;;;;;-5.03;82.57;102539.09;5070898;28;20372;-74
2022/12/18 06:31:00;;;;;;;31.25;13.10;;;;;;;-5.03;82.44;102533.88;5066816;28;20078;-74
2022/12/18 06:33:27;;;;;;;29.67;12.07;;;;;;;-5.02;82.35;102535.59;5083542;28;20032;-73
2022/12/18 06:35:53;;;;;;;28.45;12.05;;;;;;;-5.04;82.59;102532.97;5090889;28;20467;-74
2022/12/18 06:38:18;;;;;;;27.27;11.77;;;;;;;-5.04;82.60;102534.72;5084443;28;20081;-74
2022/12/18 06:40:43;;;;;;;25.33;11.18;;;;;;;-5.04;82.47;102529.47;5089898;28;20176;-74
2022/12/18 06:43:09;;;;;;;28.35;12.45;;;;;;;-5.09;82.55;102521.50;5090762;28;20038;-74
2022/12/18 06:45:34;;;;;;;26.95;11.07;;;;;;;-5.13;82.63;102522.31;5090829;28;20020;-74
2022/12/18 06:47:59;;;;;;;28.30;10.98;;;;;;;-5.15;82.63;102517.03;5089626;28;20103;-74
2022/12/18 06:50:24;;;;;;;28.75;12.60;;;;;;;-5.15;82.81;102516.16;5086884;28;20028;-74
2022/12/18 06:52:50;;;;;;;27.38;12.48;;;;;;;-5.16;82.77;102515.25;5089073;28;20032;-74
2022/12/18 06:55:15;;;;;;;27.30;11.40;;;;;;;-5.21;82.76;102513.41;5090944;28;20028;-74
2022/12/18 06:57:40;;;;;;;28.27;12.07;;;;;;;-5.20;83.01;102521.28;5084565;28;20383;-74
2022/12/18 07:00:07;;;;;;;27.10;11.60;;;;;;;-5.19;83.37;102516.97;5091411;28;20028;-74
2022/12/18 07:02:32;;;;;;;26.98;12.13;;;;;;;-5.17;82.90;102515.22;5086978;28;20143;-74
2022/12/18 07:04:58;;;;;;;27.05;12.80;;;;;;;-5.17;83.02;102512.63;5089324;28;20041;-74
2022/12/18 07:07:23;;;;;;;28.77;12.00;;;;;;;-5.13;83.15;102517.06;5071761;28;20483;-73
2022/12/18 07:09:52;;;;;;;30.45;12.50;;;;;;;-5.12;82.89;102514.47;5088988;28;20044;-74
2022/12/18 07:12:17;;;;;;;28.27;12.77;;;;;;;-5.12;82.90;102497.88;5073239;28;20028;-74
2022/12/18 07:14:43;;;;;;;27.83;12.82;;;;;;;-5.13;83.17;102493.47;5090609;28;20035;-74
2022/12/18 07:17:08;;;;;;;28.33;11.68;;;;;;;-5.13;83.12;102491.72;5089472;28;20028;-74
2022/12/18 07:19:33;;;;;;;27.80;12.15;;;;;;;-5.14;82.94;102478.59;5089340;28;20052;-74
2022/12/18 07:21:59;;;;;;;29.00;12.25;;;;;;;-5.12;82.86;102479.53;5090605;28;20028;-74
2022/12/18 07:24:24;;;;;;;25.75;10.68;;;;;;;-5.12;83.17;102466.41;5090604;28;20031;-74
2022/12/18 07:26:49;;;;;;;27.98;11.65;;;;;;;-5.11;83.28;102453.34;5089725;28;20028;-74
2022/12/18 07:29:15;;;;;;;29.02;12.07;;;;;;;-5.12;83.03;102453.31;5087816;28;20059;-74
2022/12/18 07:31:40;;;;;;;26.13;11.48;;;;;;;-5.10;83.31;102446.34;5089856;28;20388;-74
2022/12/18 07:34:10;;;;;;;28.30;11.32;;;;;;;-5.09;83.07;102449.00;5092705;28;20024;-74
2022/12/18 07:36:35;;;;;;;27.27;12.00;;;;;;;-5.06;83.15;102452.53;5092035;28;20464;-74
2022/12/18 07:39:00;;;;;;;30.63;12.30;;;;;;;-5.06;82.87;102445.53;5087496;28;20020;-74
2022/12/18 07:41:25;;;;;;;27.20;11.02;;;;;;;-5.04;83.14;102442.94;5094276;28;20383;-74
2022/12/18 07:43:51;;;;;;;27.25;12.63;;;;;;;-5.08;83.13;102431.53;5094467;28;20020;-74
2022/12/18 07:46:16;;;;;;;30.02;12.07;;;;;;;-5.02;83.76;102431.63;5093201;28;20073;-74
2022/12/18 07:48:43;;;;;;;28.27;12.30;;;;;;;-4.99;83.22;102426.44;5093887;28;20071;-74
2022/12/18 07:51:12;;;;;;;31.53;12.80;;;;;;;-4.98;82.96;102422.06;5094772;28;20027;-74
2022/12/18 07:53:38;;;;;;;27.15;12.70;;;;;;;-4.94;83.30;102416.03;5091708;28;20035;-74
2022/12/18 07:56:06;;;;;;;32.50;13.88;;;;;;;-4.91;83.26;102416.06;5076633;28;20016;-73
2022/12/18 07:58:32;;;;;;;26.42;11.45;;;;;;;-4.92;83.42;102407.31;5088844;28;20378;-74
2022/12/18 08:01:06;;;;;;;32.30;13.32;;;;;;;-4.87;83.28;102402.16;5090812;28;20047;-74
2022/12/18 08:03:32;;;;;;;26.13;11.60;;;;;;;-4.84;83.53;102409.19;5074770;28;20099;-75
2022/12/18 08:06:02;;;;;;;27.70;13.40;;;;;;;-4.82;83.70;102420.56;5085788;28;20034;-74
2022/12/18 08:08:28;;;;;;;;;;;;;;;-4.73;83.86;102428.56;5087338;28;20434;-73
2022/12/18 08:10:53;;;;;;;28.27;12.32;;;;;;;-4.73;83.35;102425.97;5094183;28;19912;-72
2022/12/18 08:13:18;;;;;;;27.02;11.35;;;;;;;-4.71;83.32;102423.34;5088143;28;20028;-74
2022/12/18 08:15:43;;;;;;;31.10;12.88;;;;;;;-4.74;83.38;102417.22;5091858;28;20136;-73
2022/12/18 08:18:09;;;;;;;27.42;12.40;;;;;;;-4.68;83.38;102418.19;5093510;28;20093;-72
2022/12/18 08:20:34;;;;;;;26.83;12.23;;;;;;;-4.66;83.56;102425.19;5092422;28;20028;-73
2022/12/18 08:22:59;;;;;;;28.27;11.70;;;;;;;-4.62;83.57;102424.38;5092299;28;20016;-73
2022/12/18 08:25:25;;;;;;;29.23;12.35;;;;;;;-4.59;83.21;102434.91;5092416;28;20043;-73
2022/12/18 08:27:50;;;;;;;29.20;12.52;;;;;;;-4.59;83.39;102419.19;5089105;28;20099;-74
2022/12/18 08:30:15;;;;;;;27.90;13.13;;;;;;;-4.54;83.35;102413.13;5091753;28;20028;-74
2022/12/18 08:32:40;;;;;;;30.88;14.02;;;;;;;-4.54;83.69;102421.00;5072486;28;20119;-74
2022/12/18 08:35:06;;;;;;;32.72;14.07;;;;;;;-4.49;83.54;102429.84;5092290;28;20031;-74
2022/12/18 08:37:32;;;;;;;32.10;13.55;;;;;;;-4.48;82.91;102424.59;5091295;28;20383;-74
2022/12/18 08:39:57;;;;;;;29.60;13.13;;;;;;;-4.42;83.66;102418.56;5092648;28;20023;-73
2022/12/18 08:45:06;;;;;;;28.40;12.85;;;;;;;-4.38;83.18;102409.84;5084585;28;20494;-73
2022/12/18 08:47:32;;;;;;;30.20;12.43;;;;;;;-4.35;83.22;102396.75;5074912;28;20028;-75
2022/12/18 08:49:57;;;;;;;28.17;12.27;;;;;;;-4.35;82.89;102390.66;5090691;28;20118;-74
2022/12/18 08:52:22;;;;;;;30.90;14.07;;;;;;;-4.33;82.68;102399.41;5093175;28;20028;-73
2022/12/18 08:54:48;;;;;;;28.10;11.93;;;;;;;-4.31;82.91;102403.81;5091525;28;20152;-72
2022/12/18 08:57:13;;;;;;;28.63;13.50;;;;;;;-4.25;83.28;102395.16;5092049;28;20028;-71
2022/12/18 08:59:38;;;;;;;32.30;13.25;;;;;;;-4.19;82.66;102402.22;5092398;28;20027;-71
2022/12/18 09:02:03;;;;;;;31.08;14.02;;;;;;;-4.14;82.95;102390.03;5073962;28;20111;-73
2022/12/18 09:04:29;;;;;;;31.17;14.55;;;;;;;-4.08;82.63;102390.13;5091225;28;20043;-73
2022/12/18 09:06:55;;;;;;;31.80;14.23;;;;;;;-4.04;82.94;102398.06;5089753;28;20032;-73
2022/12/18 09:09:21;;;;;;;31.65;14.68;;;;;;;-4.00;82.31;102401.59;5089291;28;20123;-73
2022/12/18 09:11:46;;;;;;;29.38;14.35;;;;;;;-3.98;82.04;102410.38;5091524;28;20103;-73
2022/12/18 09:14:11;;;;;;;31.85;13.98;;;;;;;-3.95;81.99;102422.69;5091547;28;20024;-72
2022/12/18 09:16:37;;;;;;;27.02;11.80;;;;;;;-3.90;82.09;102434.09;5084375;28;20160;-73
2022/12/18 09:19:04;;;;;;;30.40;14.52;;;;;;;-3.89;81.44;102421.00;5090246;28;20035;-72
2022/12/18 09:21:32;;;;;;;31.42;14.00;;;;;;;-3.81;82.11;102417.56;5081602;28;20039;-72
2022/12/18 09:23:58;;;;;;;26.40;11.95;;;;;;;-3.80;81.74;102424.59;5092800;28;20027;-72
2022/12/18 09:26:25;;;;;;;28.33;12.30;;;;;;;-3.75;81.87;102418.53;5092699;28;20028;-71
2022/12/18 09:28:51;;;;;;;28.35;11.60;;;;;;;-3.70;81.87;102415.97;5090499;28;20391;-71
2022/12/18 09:31:18;;;;;;;29.27;13.75;;;;;;;-3.64;81.69;102399.38;5090612;28;20024;-72
2022/12/18 09:33:45;;;;;;;30.15;14.13;;;;;;;-3.62;81.17;102390.63;5069227;28;20394;-72
2022/12/18 09:36:13;;;;;;;31.05;14.50;;;;;;;-3.65;80.96;102398.47;5075583;28;20024;-71
2022/12/18 09:38:38;;;;;;;29.65;14.10;;;;;;;-3.64;81.59;102388.88;5075869;28;20441;-71
2022/12/18 09:41:25;;;;;;;30.95;13.48;;;;;;;-3.58;81.88;102397.69;5091642;28;20100;-73
2022/12/18 09:43:59;;;;;;;28.92;13.82;;;;;;;-3.56;81.47;102393.34;5091789;28;20558;-72
2022/12/18 09:46:36;;;;;;;29.23;13.02;;;;;;;-3.52;81.61;102392.47;5086695;28;20032;-72
2022/12/18 09:49:07;;;;;;;28.27;14.85;;;;;;;-3.46;81.73;102383.78;5092575;28;20066;-73
2022/12/18 09:51:39;;;;;;;31.67;13.93;;;;;;;-3.43;81.08;102375.06;5072792;28;20020;-74
2022/12/18 09:54:11;;;;;;;29.95;13.75;;;;;;;-3.38;81.13;102357.59;5092682;28;20028;-72
2022/12/18 09:56:40;;;;;;;32.75;13.77;;;;;;;-3.38;80.39;102360.22;5089948;28;20054;-73
2022/12/18 09:59:14;;;;;;;30.47;13.97;;;;;;;-3.38;80.94;102368.97;5090155;28;20028;-71
2022/12/18 10:01:39;;;;;;;30.25;15.10;;;;;;;-3.29;81.30;102372.56;5066252;28;20290;-72
2022/12/18 10:04:07;;;;;;;31.95;15.10;;;;;;;-3.22;80.94;102382.25;5089532;28;20024;-72
2022/12/18 10:06:45;;;;;;;32.20;16.55;;;;;;;-3.16;80.90;102372.66;5087440;28;20038;-72
2022/12/18 10:09:36;;;;;;;30.27;15.75;;;;;;;-3.10;81.38;102368.34;5084243;28;20074;-72
2022/12/18 10:12:43;;;;;;;29.77;14.20;;;;;;;-3.10;80.77;102374.47;5089608;28;20028;-72
2022/12/18 10:15:28;;;;;;;31.58;15.43;;;;;;;-3.07;80.89;102371.00;5083117;28;20030;-71
2022/12/18 10:18:26;;;;;;;30.45;15.20;;;;;;;-3.00;81.26;102367.53;5089203;28;20035;-70
2022/12/18 10:20:59;;;;;;;28.40;14.82;;;;;;;-2.94;81.24;102378.09;5065405;28;20020;-71
2022/12/18 10:23:43;;;;;;;32.72;13.20;;;;;;;-2.88;80.97;102374.63;5069592;28;20020;-72
2022/12/18 10:26:12;;;;;;;31.42;13.93;;;;;;;-2.87;80.75;102364.13;5086701;28;20515;-73
2022/12/18 10:28:40;;;;;;;33.08;15.73;;;;;;;-2.84;80.06;102364.16;5089468;28;20386;-72
2022/12/18 10:31:07;;;;;;;30.25;14.02;;;;;;;-2.85;80.57;102359.75;5071457;28;20016;-73
2022/12/18 10:33:33;;;;;;;38.90;16.25;;;;;;;-2.82;80.62;102357.13;5086580;28;20032;-74
2022/12/18 10:36:00;;;;;;;31.30;14.88;;;;;;;-2.76;80.73;102337.88;5088744;28;20086;-73
2022/12/18 10:38:31;;;;;;;31.60;15.27;;;;;;;-2.70;80.62;102335.28;5089607;28;20024;-72
2022/12/18 10:41:21;;;;;;;29.13;13.20;;;;;;;-2.63;80.52;102337.06;5091066;28;20027;-74
2022/12/18 10:43:47;;;;;;;28.65;13.95;;;;;;;-2.58;79.92;102325.69;5090741;28;20114;-73
2022/12/18 10:46:20;;;;;;;32.45;13.75;;;;;;;-2.54;79.80;102328.34;5072918;28;20490;-73
2022/12/18 10:48:48;;;;;;;31.60;14.38;;;;;;;-2.50;80.64;102322.22;5090578;28;20020;-73
2022/12/18 10:51:35;;;;;;;29.42;13.27;;;;;;;-2.48;79.74;102314.34;5088733;28;20024;-73
2022/12/18 10:54:06;;;;;;;30.75;13.80;;;;;;;-2.48;79.39;102319.59;5085938;28;20036;-73
2022/12/18 10:56:34;;;;;;;35.70;17.80;;;;;;;-2.46;79.86;102313.47;5074196;28;20038;-73
2022/12/18 10:59:11;;;;;;;32.72;15.95;;;;;;;-2.38;79.64;102310.00;5088133;28;20103;-73
2022/12/18 11:01:51;;;;;;;31.33;13.52;;;;;;;-2.35;80.29;102307.38;5091300;28;20111;-73
2022/12/18 11:04:27;;;;;;;32.95;14.18;;;;;;;-2.34;79.38;102291.56;5088948;28;20038;-72
2022/12/18 11:06:56;;;;;;;30.33;12.57;;;;;;;-2.33;79.92;102295.97;5091590;28;20020;-74
2022/12/18 11:09:24;;;;;;;33.95;14.75;;;;;;;-2.31;80.01;102298.63;5092471;28;20143;-72
2022/12/18 11:11:53;;;;;;;30.48;14.43;;;;;;;-2.26;79.87;102304.75;5095598;28;20028;-72
2022/12/18 11:14:23;;;;;;;31.95;13.77;;;;;;;-2.17;80.10;102301.28;5094840;28;20028;-71
2022/12/18 11:16:49;;;;;;;;;;;;;;;-2.06;81.12;102307.47;5074025;28;20106;-71
2022/12/18 11:19:39;;;;;;;31.73;14.45;;;;;;;-2.02;80.01;102301.34;5075961;28;19920;-71
2022/12/18 11:22:26;;;;;;;;;;;;;;;-1.95;80.84;102292.56;5092742;28;20024;-73
2022/12/18 11:24:58;;;;;;;28.95;15.10;;;;;;;-1.92;79.25;102277.63;5092199;28;19935;-72
2022/12/18 11:27:24;;;;;;;32.92;14.02;;;;;;;-1.90;79.38;102276.75;5088796;28;20387;-72